Time;durP1;ratioP1;P1;durP2;ratioP2;P2;SDS_P1;SDS_P2;PMS_P1;PMS_P2;Temp;Humidity;BMP_temperature;BMP_pressure;BME280_temperature;BME280_humidity;BME280_pressure;Samples;Min_cycle;Max_cycle;Signal;HPM_P1;HPM_P2
2024/01/14 00:02:05;;;;;;;1.77;1.67;;;;;;;-2.74;100.00;59694.66;5031315;28;20261;-67
2024/01/14 00:04:31;;;;;;;1.50;1.47;;;;;;;-2.45;100.00;59726.34;5029680;28;20239;-69
2024/01/14 00:06:56;;;;;;;1.70;1.60;;;;;;;-2.37;100.00;59702.22;5030803;28;20171;-69
2024/01/14 00:09:21;;;;;;;1.77;1.67;;;;;;;-2.86;100.00;59663.81;5030585;28;20229;-70
2024/01/14 00:11:48;;;;;;;1.60;1.50;;;;;;;-2.87;100.00;59652.72;5031045;28;20179;-71
2024/01/14 00:14:14;;;;;;;1.83;1.73;;;;;;;-2.69;100.00;59662.19;5031114;28;20228;-70
2024/01/14 00:16:39;;;;;;;1.87;1.77;;;;;;;-2.72;100.00;59658.84;5030524;28;20221;-67
2024/01/14 00:19:05;;;;;;;2.30;1.60;;;;;;;-2.82;100.00;59630.25;5034166;28;20169;-67
2024/01/14 00:21:31;;;;;;;1.63;1.53;;;;;;;-2.96;100.00;59662.66;5038854;28;20199;-69
2024/01/14 00:23:57;;;;;;;1.90;1.80;;;;;;;-3.29;100.00;59604.09;5030822;28;20178;-67
2024/01/14 00:26:24;;;;;;;1.67;1.57;;;;;;;-2.97;100.00;59586.66;5030620;28;20549;-68
2024/01/14 00:28:52;;;;;;;2.43;2.17;;;;;;;-3.41;100.00;59585.22;5030825;28;20210;-69
2024/01/14 00:31:17;;;;;;;2.13;2.03;;;;;;;-3.12;100.00;59578.06;5030791;28;20189;-67
2024/01/14 00:33:43;;;;;;;1.23;1.23;;;;;;;-3.46;100.00;59557.75;5030542;28;20229;-66
2024/01/14 00:36:08;;;;;;;2.40;2.20;;;;;;;-3.30;100.00;59652.91;5030602;28;20465;-66
2024/01/14 00:38:34;;;;;;;1.80;1.70;;;;;;;-3.16;100.00;59540.59;5030558;28;20677;-66
2024/01/14 00:40:59;;;;;;;1.83;1.73;;;;;;;-3.55;100.00;59492.88;5029559;28;20180;-68
2024/01/14 00:43:26;;;;;;;10.23;2.13;;;;;;;-3.36;100.00;59535.88;5030746;28;20255;-66
2024/01/14 00:45:52;;;;;;;1.57;1.47;;;;;;;-3.04;100.00;59538.38;5030893;28;20171;-68
2024/01/14 00:48:17;;;;;;;1.60;1.50;;;;;;;-3.53;100.00;59495.13;5030485;28;20172;-66
2024/01/14 00:50:43;;;;;;;6.40;2.73;;;;;;;-3.35;100.00;59542.53;5029039;28;20171;-70
2024/01/14 00:53:08;;;;;;;2.03;1.93;;;;;;;-3.41;100.00;59567.75;5030022;28;20261;-71
2024/01/14 00:55:34;;;;;;;1.80;1.70;;;;;;;-3.05;100.00;59612.72;5030511;28;20179;-69
2024/01/14 00:57:59;;;;;;;1.93;1.83;;;;;;;-3.04;100.00;59568.91;5030192;28;20177;-70
2024/01/14 01:00:25;;;;;;;2.07;1.93;;;;;;;-3.18;100.00;59571.38;5030535;28;20179;-65
2024/01/14 01:02:50;;;;;;;2.43;2.30;;;;;;;-3.23;100.00;59570.25;5030641;28;20554;-69
2024/01/14 01:05:16;;;;;;;1.33;1.30;;;;;;;-3.53;100.00;59544.44;5030892;28;20231;-66
2024/01/14 01:07:41;;;;;;;1.73;1.63;;;;;;;-3.47;100.00;59551.66;5029973;28;20219;-70
2024/01/14 01:10:07;;;;;;;1.97;1.87;;;;;;;-3.39;100.00;59505.66;5030380;28;20189;-69
2024/01/14 01:12:32;;;;;;;1.77;1.67;;;;;;;-3.69;100.00;59427.47;5030098;28;20221;-71
2024/01/14 01:14:58;;;;;;;2.67;1.40;;;;;;;-3.51;100.00;59424.97;5030410;28;20225;-71
2024/01/14 01:17:23;;;;;;;1.80;1.70;;;;;;;-3.50;100.00;59333.78;5030430;28;20179;-68
2024/01/14 01:19:48;;;;;;;1.53;1.43;;;;;;;-3.53;100.00;59502.59;5029998;28;20243;-68
2024/01/14 01:22:14;;;;;;;2.13;2.03;;;;;;;-3.41;100.00;59303.84;5029913;28;20514;-67
2024/01/14 01:24:39;;;;;;;1.50;1.40;;;;;;;-3.51;100.00;59274.78;5030484;28;20187;-67
2024/01/14 01:27:05;;;;;;;2.07;1.97;;;;;;;-3.53;100.00;59263.13;5030483;28;20671;-69
2024/01/14 01:29:31;;;;;;;2.00;1.90;;;;;;;-3.84;100.00;59251.88;5034819;28;20228;-63
2024/01/14 01:31:56;;;;;;;1.90;1.80;;;;;;;-3.81;100.00;59237.16;5034346;28;20211;-70
2024/01/14 01:34:24;;;;;;;1.77;1.67;;;;;;;-3.42;100.00;59272.25;5030189;28;20627;-68
2024/01/14 01:36:49;;;;;;;1.60;1.50;;;;;;;-3.46;100.00;59305.78;5029803;28;20179;-69
2024/01/14 01:39:15;;;;;;;1.80;1.70;;;;;;;-3.78;100.00;59285.34;5030768;28;20235;-68
2024/01/14 01:41:40;;;;;;;1.77;1.67;;;;;;;-3.70;100.00;59356.56;5030374;28;20621;-66
2024/01/14 01:44:05;;;;;;;1.37;1.27;;;;;;;-3.43;100.00;59291.66;5032785;28;20175;-69
2024/01/14 01:46:32;;;;;;;4.93;3.33;;;;;;;-3.61;100.00;59321.63;5033769;28;20258;-67
2024/01/14 01:48:59;;;;;;;1.53;1.43;;;;;;;-3.77;100.00;59356.84;5035742;28;20183;-65
2024/01/14 01:51:25;;;;;;;1.67;1.57;;;;;;;-3.60;100.00;59260.94;5039045;28;20241;-67
2024/01/14 01:53:50;;;;;;;2.40;2.23;;;;;;;-3.78;100.00;59338.28;5033507;28;20195;-70
2024/01/14 01:56:17;;;;;;;1.70;1.60;;;;;;;-3.47;100.00;59336.56;5033791;28;20687;-67
2024/01/14 01:58:43;;;;;;;3.23;2.33;;;;;;;-3.51;100.00;59324.66;5033288;28;20168;-70
2024/01/14 02:01:09;;;;;;;1.50;1.40;;;;;;;-3.55;100.00;59278.38;5033546;28;20237;-67
2024/01/14 02:03:34;;;;;;;1.33;1.30;;;;;;;-3.96;100.00;59221.16;5033315;28;20217;-68
2024/01/14 02:06:01;;;;;;;1.50;1.40;;;;;;;-3.81;100.00;59245.22;5033308;28;20464;-66
2024/01/14 02:08:27;;;;;;;1.70;1.60;;;;;;;-3.48;100.00;59300.53;5033432;28;20677;-70
2024/01/14 02:10:52;;;;;;;1.80;1.70;;;;;;;-3.53;100.00;59485.13;5033454;28;20172;-65
2024/01/14 02:13:18;;;;;;;1.20;1.20;;;;;;;-3.80;100.00;59241.34;5033195;28;20191;-68
2024/01/14 02:15:43;;;;;;;2.30;2.20;;;;;;;-3.66;100.00;59196.97;5033153;28;20175;-70
2024/01/14 02:18:09;;;;;;;2.50;2.30;;;;;;;-3.92;100.00;58983.78;5031990;28;20186;-68
2024/01/14 02:20:34;;;;;;;1.60;1.50;;;;;;;-3.74;100.00;58849.03;5032699;28;20238;-68
2024/01/14 02:23:00;;;;;;;1.47;1.37;;;;;;;-3.81;100.00;58561.59;5032732;28;20167;-68
2024/01/14 02:25:26;;;;;;;2.13;2.03;;;;;;;-4.10;100.00;58037.19;5031222;28;20179;-67
2024/01/14 02:27:52;;;;;;;1.53;1.43;;;;;;;-3.99;100.00;57136.81;5032665;28;20175;-68
2024/01/14 02:30:18;;;;;;;1.50;1.40;;;;;;;-3.86;100.00;57066.00;5032437;28;20171;-71
2024/01/14 02:32:44;;;;;;;1.80;1.70;;;;;;;-3.82;100.00;56844.09;5032300;28;20250;-69
2024/01/14 02:35:09;;;;;;;1.60;1.50;;;;;;;-3.82;100.00;56798.72;5032324;28;20201;-69
2024/01/14 02:37:37;;;;;;;1.30;1.30;;;;;;;-3.77;100.00;56607.75;5031284;28;20171;-67
2024/01/14 02:40:03;;;;;;;1.80;1.70;;;;;;;-3.88;100.00;57303.56;5042715;28;20191;-68
2024/01/14 02:42:29;;;;;;;1.80;1.70;;;;;;;-4.09;100.00;57592.41;5032390;28;20564;-67
2024/01/14 02:44:55;;;;;;;1.60;1.53;;;;;;;-4.17;100.00;57571.88;5032664;28;20159;-68
2024/01/14 02:47:20;;;;;;;2.77;2.57;;;;;;;-4.16;100.00;57572.94;5031589;28;20233;-66
2024/01/14 02:49:46;;;;;;;2.23;2.00;;;;;;;-4.34;100.00;57200.03;5040267;28;20188;-69
2024/01/14 02:52:12;;;;;;;1.70;1.60;;;;;;;-4.33;100.00;57113.44;5031612;28;20257;-66
2024/01/14 02:54:37;;;;;;;1.93;1.83;;;;;;;-4.13;100.00;57239.44;5031586;28;20217;-66
2024/01/14 02:57:03;;;;;;;2.80;2.17;;;;;;;-3.82;100.00;57419.66;5031735;28;20183;-68
2024/01/14 02:59:32;;;;;;;2.33;2.23;;;;;;;-3.96;100.00;57217.78;5031750;28;20182;-69
2024/01/14 03:01:57;;;;;;;2.17;2.07;;;;;;;-4.39;100.00;56611.72;5030341;28;20687;-68
2024/01/14 03:04:22;;;;;;;2.63;2.47;;;;;;;-4.35;100.00;55850.00;5031473;28;20206;-68
2024/01/14 03:06:48;;;;;;;2.13;2.03;;;;;;;-3.98;100.00;55096.53;5032273;28;20179;-70
2024/01/14 03:09:14;;;;;;;1.53;1.43;;;;;;;-3.95;100.00;55082.19;5032103;28;20264;-69
2024/01/14 03:11:39;;;;;;;1.43;1.33;;;;;;;-4.03;100.00;54800.13;5032145;28;20190;-68
2024/01/14 03:14:05;;;;;;;1.37;1.30;;;;;;;-4.10;100.00;55171.72;5032016;28;20203;-68
2024/01/14 03:16:30;;;;;;;2.03;1.93;;;;;;;-4.10;100.00;55295.66;5030531;28;20187;-70
2024/01/14 03:18:56;;;;;;;2.17;2.07;;;;;;;-4.14;100.00;55294.50;5031822;28;20401;-70
2024/01/14 03:21:21;;;;;;;1.57;1.47;;;;;;;-4.18;100.00;55016.09;5031884;28;20179;-67
2024/01/14 03:23:48;;;;;;;2.20;2.03;;;;;;;-4.24;100.00;54387.88;5031743;28;20186;-72
2024/01/14 03:26:14;;;;;;;1.40;1.30;;;;;;;-4.19;100.00;53826.31;5031875;28;20171;-68
2024/01/14 03:28:39;;;;;;;1.63;1.53;;;;;;;-4.17;100.00;54895.19;5031968;28;20639;-68
2024/01/14 03:31:05;;;;;;;1.70;1.60;;;;;;;-4.26;100.00;54799.34;5031550;28;20632;-66
2024/01/14 03:33:30;;;;;;;1.53;1.43;;;;;;;-4.28;100.00;54648.00;5030970;28;20579;-67
2024/01/14 03:35:56;;;;;;;1.90;1.80;;;;;;;-4.32;100.00;54374.75;5031940;28;20633;-66
2024/01/14 03:38:21;;;;;;;2.17;2.07;;;;;;;-5.44;100.00;53368.13;5030299;28;20286;-68
2024/01/14 03:40:47;;;;;;;1.80;1.70;;;;;;;-4.86;100.00;52782.06;5031327;28;20266;-70
2024/01/14 03:43:12;;;;;;;1.97;1.87;;;;;;;-4.50;100.00;51436.22;5031309;28;20276;-70
2024/01/14 03:45:38;;;;;;;3.20;2.27;;;;;;;-4.80;100.00;47555.19;5031178;28;20576;-71
2024/01/14 03:48:04;;;;;;;2.33;2.23;;;;;;;-4.73;100.00;42259.78;5031281;28;20191;-69
2024/01/14 03:50:29;;;;;;;1.80;1.70;;;;;;;-4.73;100.00;33690.53;5041305;28;20639;-70
2024/01/14 03:52:54;;;;;;;1.70;1.60;;;;;;;-4.73;100.00;29898.25;5031725;28;20260;-67
2024/01/14 03:55:20;;;;;;;6.07;2.97;;;;;;;-4.76;100.00;28633.22;5031331;28;20183;-70
2024/01/14 03:57:45;;;;;;;1.70;1.60;;;;;;;-4.84;100.00;26419.13;5031432;28;20262;-71
2024/01/14 04:00:12;;;;;;;2.17;2.07;;;;;;;-4.60;100.00;24223.78;5031434;28;20256;-70
2024/01/14 04:02:38;;;;;;;4.23;2.43;;;;;;;-4.62;100.00;21700.59;5031113;28;20182;-66
2024/01/14 04:05:04;;;;;;;1.60;1.50;;;;;;;-4.58;100.00;21387.56;5030718;28;20171;-71
2024/01/14 04:07:29;;;;;;;2.00;1.90;;;;;;;-4.57;100.00;22333.59;5030555;28;20178;-67
2024/01/14 04:09:54;;;;;;;1.10;1.10;;;;;;;-4.59;100.00;23593.56;5030698;28;20205;-71
2024/01/14 04:12:20;;;;;;;1.50;1.40;;;;;;;-4.89;100.00;20743.25;5030550;28;20175;-70
2024/01/14 04:14:45;;;;;;;3.80;2.80;;;;;;;-5.06;100.00;20420.72;5029645;28;20341;-67
2024/01/14 04:17:11;;;;;;;1.90;1.77;;;;;;;-5.05;100.00;20106.59;5039730;28;20179;-69
2024/01/14 04:19:37;;;;;;;1.70;1.60;;;;;;;-5.06;100.00;18847.28;5030530;28;20179;-71
2024/01/14 04:22:03;;;;;;;2.13;1.93;;;;;;;-4.74;100.00;19490.28;5031045;28;20178;-67
2024/01/14 04:24:29;;;;;;;1.17;1.17;;;;;;;-4.97;100.00;21369.66;5030712;28;20187;-69
2024/01/14 04:26:54;;;;;;;1.87;1.77;;;;;;;-4.89;100.00;22948.41;5030740;28;20273;-69
2024/01/14 04:29:20;;;;;;;1.47;1.37;;;;;;;-4.95;100.00;27044.28;5030827;28;20277;-70
2024/01/14 04:31:45;;;;;;;1.77;1.67;;;;;;;-4.69;100.00;29900.38;5030604;28;20175;-67
2024/01/14 04:34:10;;;;;;;1.70;1.60;;;;;;;-4.76;100.00;32108.13;5031242;28;20239;-68
2024/01/14 04:36:36;;;;;;;2.20;2.10;;;;;;;-5.16;100.00;31450.66;5031053;28;20234;-70
2024/01/14 04:39:02;;;;;;;1.80;1.70;;;;;;;-4.80;100.00;32737.38;5030549;28;20175;-67
2024/01/14 04:41:27;;;;;;;1.73;1.63;;;;;;;-4.91;100.00;33362.97;5030881;28;20396;-71
2024/01/14 04:43:52;;;;;;;6.43;2.50;;;;;;;-4.98;100.00;32725.88;5030381;28;20176;-67
2024/01/14 04:46:19;;;;;;;1.80;1.70;;;;;;;-5.13;100.00;32084.25;5029956;28;20652;-70
2024/01/14 04:48:45;;;;;;;1.87;1.77;;;;;;;-5.05;100.00;33037.63;5030667;28;20271;-68
2024/01/14 04:51:10;;;;;;;1.60;1.50;;;;;;;-5.21;100.00;33027.03;5030742;28;20246;-71
2024/01/14 04:53:35;;;;;;;2.53;2.33;;;;;;;-5.28;100.00;29864.78;5030707;28;20656;-68
2024/01/14 04:56:05;;;;;;;2.13;2.03;;;;;;;-5.07;100.00;29877.56;5030328;28;20175;-67
2024/01/14 04:58:31;;;;;;;1.87;1.77;;;;;;;-5.43;100.00;28909.91;5030618;28;20581;-65
2024/01/14 05:00:56;;;;;;;2.30;2.20;;;;;;;-5.45;100.00;27647.34;5040347;28;20671;-70
2024/01/14 05:03:22;;;;;;;4.90;2.30;;;;;;;-5.55;100.00;25435.72;5030913;28;20207;-70
2024/01/14 05:05:47;;;;;;;4.20;3.80;;;;;;;-5.78;100.00;22590.56;5030583;28;20178;-68
2024/01/14 05:08:12;;;;;;;1.70;1.60;;;;;;;-5.49;100.00;21975.13;5029188;28;20649;-69
2024/01/14 05:10:38;;;;;;;1.43;1.33;;;;;;;-5.01;100.00;22627.72;5030317;28;20193;-69
2024/01/14 05:13:03;;;;;;;1.83;1.73;;;;;;;-5.20;100.00;26084.34;5030454;28;20698;-68
2024/01/14 05:15:29;;;;;;;2.33;2.23;;;;;;;-5.12;100.00;25773.66;5030353;28;20707;-67
2024/01/14 05:17:54;;;;;;;1.70;1.60;;;;;;;-5.19;100.00;26715.75;5031459;28;20602;-69
2024/01/14 05:20:19;;;;;;;2.07;1.87;;;;;;;-5.61;100.00;24172.81;5034178;28;20186;-66
2024/01/14 05:22:45;;;;;;;3.13;2.20;;;;;;;-5.62;100.00;23857.19;5034067;28;20313;-70
2024/01/14 05:25:10;;;;;;;1.53;1.43;;;;;;;-5.27;100.00;23244.94;5034239;28;20564;-70
2024/01/14 05:27:35;;;;;;;1.97;1.87;;;;;;;-5.22;100.00;22302.34;5033941;28;20172;-66
2024/01/14 05:30:03;;;;;;;1.50;1.40;;;;;;;-5.62;100.00;23227.56;5034434;28;20178;-69
2024/01/14 05:32:28;;;;;;;1.60;1.50;;;;;;;-5.56;100.00;23230.56;5033917;28;20223;-67
2024/01/14 05:34:54;;;;;;;1.97;1.87;;;;;;;-5.27;100.00;23244.69;5034279;28;20310;-67
2024/01/14 05:37:20;;;;;;;2.53;2.43;;;;;;;-5.29;100.00;23873.66;5034111;28;20270;-67
2024/01/14 05:39:45;;;;;;;1.97;1.87;;;;;;;-5.18;100.00;24194.56;5034270;28;20199;-69
2024/01/14 05:42:11;;;;;;;1.83;1.73;;;;;;;-5.24;100.00;26397.69;5032457;28;20196;-66
2024/01/14 05:44:36;;;;;;;1.87;1.63;;;;;;;-5.51;100.00;26382.88;5033465;28;20179;-65
2024/01/14 05:47:01;;;;;;;2.67;2.47;;;;;;;-5.34;100.00;25761.81;5033359;28;20172;-66
2024/01/14 05:49:27;;;;;;;2.00;1.90;;;;;;;-5.62;100.00;26377.09;5033120;28;21917;-69
2024/01/14 05:51:52;;;;;;;2.13;2.03;;;;;;;-5.25;100.00;28919.97;5033051;28;20178;-70
2024/01/14 05:54:18;;;;;;;1.70;1.60;;;;;;;-5.23;100.00;29236.69;5032931;28;20321;-67
2024/01/14 05:56:43;;;;;;;1.63;1.53;;;;;;;-5.25;100.00;26712.16;5033598;28;20175;-70
2024/01/14 05:59:09;;;;;;;1.93;1.83;;;;;;;-5.39;100.00;27335.44;5032969;28;20171;-69
2024/01/14 06:01:34;;;;;;;4.90;2.33;;;;;;;-5.07;100.00;29562.19;5032747;28;20234;-65
2024/01/14 06:04:00;;;;;;;1.70;1.60;;;;;;;-5.33;100.00;30177.31;5033345;28;20589;-69
2024/01/14 06:06:25;;;;;;;3.23;2.17;;;;;;;-5.40;100.00;29542.28;5032908;28;20607;-68
2024/01/14 06:08:51;;;;;;;1.63;1.53;;;;;;;-5.20;100.00;27976.75;5035040;28;20167;-67
2024/01/14 06:11:16;;;;;;;1.60;1.50;;;;;;;-5.35;100.00;27337.72;5040958;28;20532;-69
2024/01/14 06:13:42;;;;;;;1.60;1.50;;;;;;;-5.28;100.00;27341.09;5032977;28;20223;-70
2024/01/14 06:16:08;;;;;;;1.50;1.40;;;;;;;-5.20;100.00;28292.22;5032843;28;20171;-69
2024/01/14 06:18:34;;;;;;;2.20;2.10;;;;;;;-5.33;100.00;27653.59;5032953;28;20169;-69
2024/01/14 06:21:01;;;;;;;1.20;1.20;;;;;;;-4.95;100.00;27991.16;5032798;28;20186;-68
2024/01/14 06:23:28;;;;;;;2.00;1.90;;;;;;;-5.14;100.00;28926.47;5032022;28;20186;-68
2024/01/14 06:25:54;;;;;;;1.73;1.63;;;;;;;-4.83;100.00;29260.28;5031068;28;20175;-72
2024/01/14 06:28:21;;;;;;;1.63;1.53;;;;;;;-4.86;100.00;28311.69;5030543;28;20168;-70
2024/01/14 06:30:52;;;;;;;3.33;2.13;;;;;;;-4.57;100.00;27696.72;5031107;28;20207;-71
2024/01/14 06:33:21;;;;;;;1.77;1.67;;;;;;;-4.42;100.00;28968.53;5029168;28;20226;-71
2024/01/14 06:35:46;;;;;;;2.50;2.17;;;;;;;-4.38;100.00;29918.94;5030945;28;20230;-71
2024/01/14 06:38:12;;;;;;;1.80;1.70;;;;;;;-4.29;100.00;30556.97;5031489;28;20175;-69
2024/01/14 06:40:37;;;;;;;1.80;1.70;;;;;;;-4.18;100.00;35310.16;5032890;28;20560;-71
2024/01/14 06:43:03;;;;;;;1.90;1.70;;;;;;;-4.20;100.00;39589.22;5032017;28;20232;-71
2024/01/14 06:45:29;;;;;;;1.60;1.50;;;;;;;-3.98;100.00;45751.44;5048004;28;20194;-68
2024/01/14 06:47:54;;;;;;;2.10;2.00;;;;;;;-3.87;100.00;47385.31;5032356;28;20171;-67
2024/01/14 06:50:20;;;;;;;1.50;1.40;;;;;;;-3.85;100.00;49800.63;5032437;28;20705;-67
2024/01/14 06:52:48;;;;;;;1.80;1.70;;;;;;;-3.54;100.00;52979.84;5032387;28;20179;-68
2024/01/14 06:55:14;;;;;;;1.97;1.87;;;;;;;-3.76;100.00;54650.63;5032637;28;20156;-69
2024/01/14 06:57:39;;;;;;;1.63;1.53;;;;;;;-3.47;100.00;55201.13;5032128;28;20262;-69
2024/01/14 07:00:07;;;;;;;2.20;2.10;;;;;;;-3.22;100.00;55870.19;5031153;28;20176;-66
2024/01/14 07:02:33;;;;;;;2.23;2.00;;;;;;;-3.42;100.00;56858.22;5032413;28;20203;-68
2024/01/14 07:04:59;;;;;;;1.40;1.40;;;;;;;-2.91;100.00;57615.69;5032494;28;20278;-67
2024/01/14 07:07:24;;;;;;;2.33;2.23;;;;;;;-2.85;100.00;57889.19;5032292;28;20196;-65
2024/01/14 07:09:50;;;;;;;1.90;1.80;;;;;;;-2.92;100.00;58249.09;5032129;28;20177;-69
2024/01/14 07:12:15;;;;;;;3.33;3.07;;;;;;;-2.69;100.00;58473.34;5032044;28;20215;-68
2024/01/14 07:14:41;;;;;;;1.93;1.83;;;;;;;-2.65;100.00;58589.53;5032431;28;20210;-70
2024/01/14 07:17:07;;;;;;;1.93;1.83;;;;;;;-2.36;100.00;59053.53;5032137;28;20223;-69
2024/01/14 07:19:35;;;;;;;1.40;1.30;;;;;;;-2.26;100.00;59294.50;5040775;28;20156;-66
2024/01/14 07:22:01;;;;;;;1.50;1.40;;;;;;;-2.12;100.00;59421.91;5032457;28;20169;-71
2024/01/14 07:24:26;;;;;;;2.60;2.10;;;;;;;-1.92;100.00;59509.66;5031973;28;20232;-69
2024/01/14 07:26:51;;;;;;;8.43;2.50;;;;;;;-1.82;100.00;59590.81;5031442;28;20171;-66
2024/01/14 07:29:17;;;;;;;2.10;1.63;;;;;;;-1.60;100.00;59622.19;5031539;28;20258;-70
2024/01/14 07:31:42;;;;;;;3.37;1.97;;;;;;;-1.78;100.00;59657.22;5031621;28;20241;-71
2024/01/14 07:34:08;;;;;;;2.20;2.07;;;;;;;-1.44;100.00;59694.47;5031780;28;20227;-70
2024/01/14 07:36:34;;;;;;;2.50;2.30;;;;;;;-1.45;100.00;59858.56;5031758;28;20167;-67
2024/01/14 07:38:59;;;;;;;1.43;1.40;;;;;;;-1.48;100.00;59755.13;5031267;28;20171;-70
2024/01/14 07:41:25;;;;;;;1.60;1.50;;;;;;;-1.38;100.00;59746.19;5030473;28;20171;-67
2024/01/14 07:43:50;;;;;;;1.53;1.43;;;;;;;-1.15;100.00;59714.19;5031428;28;20171;-69
2024/01/14 07:46:16;;;;;;;1.83;1.73;;;;;;;-1.14;100.00;59897.59;5029862;28;20179;-68
2024/01/14 07:48:42;;;;;;;2.43;2.20;;;;;;;-0.64;100.00;59822.44;5031119;28;20178;-66
2024/01/14 07:51:08;;;;;;;1.97;1.87;;;;;;;-0.81;100.00;59804.09;5030952;28;20167;-67
2024/01/14 07:53:33;;;;;;;1.70;1.60;;;;;;;-0.57;100.00;59810.22;5030947;28;20633;-70
2024/01/14 07:56:00;;;;;;;2.17;1.97;;;;;;;-0.19;100.00;59897.69;5030819;28;20267;-68
2024/01/14 07:58:26;;;;;;;1.77;1.67;;;;;;;-0.52;100.00;59896.56;5030865;28;20259;-70
2024/01/14 08:00:51;;;;;;;1.50;1.43;;;;;;;-0.25;100.00;59893.50;5029450;28;20267;-68
2024/01/14 08:03:17;;;;;;;2.00;1.90;;;;;;;-0.27;100.00;59898.78;5031081;28;20183;-69
2024/01/14 08:05:42;;;;;;;2.23;2.13;;;;;;;-0.65;100.00;59848.94;5030770;28;20252;-70
2024/01/14 08:08:08;;;;;;;1.20;1.20;;;;;;;-0.37;100.00;59849.47;5030846;28;20646;-68
2024/01/14 08:10:34;;;;;;;2.30;2.10;;;;;;;-0.11;100.00;59936.72;5030550;28;20208;-68
2024/01/14 08:12:59;;;;;;;1.60;1.50;;;;;;;-0.17;100.00;59887.34;5030690;28;20183;-68
2024/01/14 08:15:25;;;;;;;1.63;1.53;;;;;;;-0.23;100.00;59883.19;5031221;28;20559;-72
2024/01/14 08:17:51;;;;;;;1.73;1.60;;;;;;;0.17;100.00;59878.97;5030786;28;20664;-69
2024/01/14 08:20:16;;;;;;;1.53;1.43;;;;;;;0.32;100.00;59948.41;5030739;28;20186;-69
2024/01/14 08:22:42;;;;;;;1.27;1.27;;;;;;;0.13;100.00;59949.81;5030707;28;20509;-68
2024/01/14 08:25:08;;;;;;;2.17;1.93;;;;;;;0.13;100.00;59988.03;5030473;28;20221;-71
2024/01/14 08:27:34;;;;;;;2.10;1.90;;;;;;;0.10;100.00;59923.88;5031530;28;20201;-67
2024/01/14 08:29:59;;;;;;;2.17;1.77;;;;;;;0.01;100.00;59904.34;5039076;28;20190;-69
2024/01/14 08:32:25;;;;;;;1.77;1.67;;;;;;;-0.03;100.00;59932.53;5031205;28;20290;-70
2024/01/14 08:34:50;;;;;;;5.27;1.83;;;;;;;-0.02;100.00;59976.28;5030859;28;20202;-70
2024/01/14 08:37:16;;;;;;;1.10;1.10;;;;;;;-0.17;100.00;59937.53;5030549;28;20657;-67
2024/01/14 08:39:41;;;;;;;1.90;1.80;;;;;;;0.15;100.00;59904.34;5030255;28;20187;-73
2024/01/14 08:42:07;;;;;;;2.43;2.00;;;;;;;-0.16;100.00;59921.09;5030834;28;20191;-67
2024/01/14 08:44:33;;;;;;;1.60;1.50;;;;;;;0.09;100.00;59950.38;5030329;28;20235;-64
2024/01/14 08:46:59;;;;;;;1.13;1.13;;;;;;;0.38;100.00;59995.28;5030434;28;20180;-70
2024/01/14 08:49:26;;;;;;;3.83;2.00;;;;;;;0.35;100.00;59981.88;5030661;28;20231;-68
2024/01/14 08:51:52;;;;;;;2.47;1.70;;;;;;;0.28;100.00;59964.03;5031474;28;20231;-72
2024/01/14 08:54:17;;;;;;;1.93;1.83;;;;;;;0.20;100.00;59960.13;5034361;28;20206;-71
2024/01/14 08:56:43;;;;;;;2.03;1.80;;;;;;;0.54;100.00;59979.94;5034301;28;20671;-68
2024/01/14 08:59:09;;;;;;;2.23;2.03;;;;;;;0.62;100.00;59996.94;5034203;28;20177;-71
2024/01/14 09:01:35;;;;;;;2.03;1.93;;;;;;;0.72;100.00;59993.03;5033113;28;20277;-68
2024/01/14 09:04:00;;;;;;;5.17;2.43;;;;;;;0.53;100.00;60013.97;5034431;28;20670;-67
2024/01/14 09:06:26;;;;;;;1.67;1.57;;;;;;;0.61;100.00;59985.78;5034348;28;20183;-72
2024/01/14 09:08:52;;;;;;;1.27;1.27;;;;;;;0.63;100.00;60007.56;5034202;28;20168;-73
2024/01/14 09:11:17;;;;;;;2.13;2.03;;;;;;;0.64;100.00;59981.63;5034023;28;20257;-69
2024/01/14 09:13:45;;;;;;;1.53;1.43;;;;;;;0.71;100.00;60008.94;5033976;28;20297;-68
2024/01/14 09:16:12;;;;;;;2.67;2.07;;;;;;;0.62;100.00;59994.44;5033913;28;20223;-73
2024/01/14 09:18:37;;;;;;;1.30;1.30;;;;;;;0.71;100.00;60008.94;5034504;28;20623;-69
2024/01/14 09:21:03;;;;;;;1.57;1.47;;;;;;;1.16;100.00;60041.03;5033989;28;20183;-69
2024/01/14 09:23:29;;;;;;;1.50;1.40;;;;;;;1.32;99.78;60043.81;5033724;28;20170;-69
2024/01/14 09:25:56;;;;;;;2.07;1.87;;;;;;;1.34;98.32;60041.56;5034057;28;20695;-72
2024/01/14 09:28:24;;;;;;;2.40;2.20;;;;;;;1.26;97.99;60100.53;5033743;28;20562;-72
2024/01/14 09:30:50;;;;;;;2.37;2.17;;;;;;;1.60;94.66;60094.66;5033723;28;20159;-67
2024/01/14 09:33:15;;;;;;;1.67;1.57;;;;;;;1.21;93.72;60054.16;5033208;28;20646;-70
2024/01/14 09:35:41;;;;;;;2.13;1.83;;;;;;;1.62;93.33;60066.72;5038299;28;20185;-67
2024/01/14 09:38:07;;;;;;;3.93;2.47;;;;;;;1.45;91.35;60045.75;5038380;28;20645;-67
2024/01/14 09:40:33;;;;;;;1.63;1.53;;;;;;;1.85;92.96;60104.44;5033881;28;20174;-68
2024/01/14 09:43:02;;;;;;;1.73;1.63;;;;;;;1.66;92.23;60119.53;5034000;28;20194;-70
2024/01/14 09:45:28;;;;;;;1.20;1.20;;;;;;;1.33;94.54;60030.41;5033691;28;20213;-67
2024/01/14 09:47:55;;;;;;;2.20;2.00;;;;;;;0.92;95.42;60014.25;5033621;28;20191;-68
2024/01/14 09:50:21;;;;;;;2.63;1.77;;;;;;;1.30;95.68;60047.16;5033463;28;20697;-70
2024/01/14 09:52:49;;;;;;;2.50;2.30;;;;;;;1.53;95.34;60072.28;5032114;28;20258;-69
2024/01/14 09:55:15;;;;;;;4.30;2.13;;;;;;;1.45;94.95;60080.41;5033624;28;20236;-69
2024/01/14 09:57:49;;;;;;;2.27;2.10;;;;;;;1.53;93.02;60056.63;5035971;28;20698;-70
2024/01/14 10:00:15;;;;;;;1.23;1.23;;;;;;;1.64;92.52;60089.06;5013425;28;20211;-70
2024/01/14 10:02:41;;;;;;;1.97;1.87;;;;;;;1.38;91.92;60050.53;5019051;28;20210;-67
2024/01/14 10:05:08;;;;;;;1.77;1.67;;;;;;;1.69;91.39;60090.19;5031979;28;20201;-70
2024/01/14 10:07:33;;;;;;;1.93;1.80;;;;;;;1.78;90.10;60070.03;5032901;28;20172;-71
2024/01/14 10:09:59;;;;;;;3.03;2.80;;;;;;;2.06;89.86;60092.63;5033122;28;20255;-69
2024/01/14 10:12:25;;;;;;;4.23;2.40;;;;;;;2.27;88.88;60118.06;5033355;28;20176;-71
2024/01/14 10:14:58;;;;;;;2.00;1.90;;;;;;;2.50;88.70;60179.03;5032753;28;20624;-67
2024/01/14 10:17:24;;;;;;;1.90;1.80;;;;;;;2.74;87.87;60170.03;5032658;28;20175;-69
2024/01/14 10:19:59;;;;;;;3.00;2.00;;;;;;;2.23;89.09;60179.63;5032915;28;20183;-71
2024/01/14 10:22:28;;;;;;;4.37;1.87;;;;;;;2.50;87.25;60093.91;5032575;28;20265;-71
2024/01/14 10:24:56;;;;;;;2.43;1.80;;;;;;;2.78;85.39;60144.81;5032741;28;20179;-68
2024/01/14 10:27:26;;;;;;;3.27;2.10;;;;;;;2.66;86.15;60149.59;5032350;28;20553;-71
2024/01/14 10:29:51;;;;;;;1.27;1.27;;;;;;;2.51;85.09;60112.13;5032768;28;20163;-69
2024/01/14 10:32:19;;;;;;;2.60;2.40;;;;;;;2.81;83.53;60188.50;5032066;28;20733;-68
2024/01/14 10:34:45;;;;;;;3.23;2.73;;;;;;;3.02;83.18;60211.44;5032478;28;20273;-70
2024/01/14 10:37:11;;;;;;;1.60;1.50;;;;;;;3.32;81.21;60363.03;5032699;28;20194;-68
2024/01/14 10:39:38;;;;;;;3.33;2.97;;;;;;;3.07;81.76;60211.97;5032060;28;20649;-71
2024/01/14 10:42:04;;;;;;;1.60;1.50;;;;;;;3.32;81.48;60255.09;5031441;28;20184;-67
2024/01/14 10:44:31;;;;;;;1.70;1.60;;;;;;;3.37;80.78;60224.81;5040497;28;20243;-69
2024/01/14 10:47:01;;;;;;;2.00;1.90;;;;;;;3.62;80.32;60249.69;5032531;28;20190;-69
2024/01/14 10:49:27;;;;;;;2.73;2.53;;;;;;;3.85;78.50;60255.22;5032789;28;20302;-70
2024/01/14 10:52:16;;;;;;;3.80;2.27;;;;;;;4.05;78.51;60280.13;5032093;28;20254;-69
2024/01/14 10:54:52;;;;;;;2.90;2.70;;;;;;;3.78;78.90;60275.72;5032470;28;20823;-71
2024/01/14 10:57:36;;;;;;;2.33;2.00;;;;;;;4.11;77.18;60298.94;5032016;28;20163;-68
2024/01/14 11:00:08;;;;;;;1.93;1.80;;;;;;;4.25;75.82;60317.13;5047495;28;20178;-69
2024/01/14 11:02:37;;;;;;;2.73;2.27;;;;;;;4.41;75.71;60335.59;5031697;28;20163;-69
2024/01/14 11:05:05;;;;;;;5.23;4.23;;;;;;;4.14;76.03;60393.25;5032243;28;20643;-69
2024/01/14 11:07:33;;;;;;;2.17;2.07;;;;;;;4.61;74.10;60495.97;5031530;28;20175;-68
2024/01/14 11:09:59;;;;;;;1.90;1.80;;;;;;;4.51;73.40;60336.13;5031858;28;20187;-73
2024/01/14 11:12:47;;;;;;;3.40;2.60;;;;;;;4.59;73.49;60349.56;5030197;28;20175;-71
2024/01/14 11:15:22;;;;;;;1.93;1.83;;;;;;;4.76;72.77;60374.25;5036553;28;20210;-71
2024/01/14 11:17:56;;;;;;;1.50;1.40;;;;;;;4.85;71.99;60364.09;5033585;28;20503;-70
2024/01/14 11:20:27;;;;;;;2.30;2.20;;;;;;;4.77;71.01;60384.91;5032384;28;20194;-69
2024/01/14 11:22:53;;;;;;;5.73;2.30;;;;;;;4.71;72.76;60361.06;5029078;28;20682;-71
2024/01/14 11:25:21;;;;;;;2.40;2.20;;;;;;;5.07;72.83;60595.72;5030211;28;20190;-70